| time (UTC) | temp C | wind direction | speed KPH | gust KPH | rain 1hr cm | rain 24hr cm | rain mn cm | humidity % | barometer mb |
| 20260906103102 | 19 | 39 | 4.8 | 14.5 | 0.00 | 0.03 | 0.00 | 93 | 1014.0 |
| 20260906101601 | 20 | 20 | 6.4 | 14.5 | 0.00 | 0.03 | 0.00 | 93 | 1013.9 |
| 20260906100054 | 20 | 38 | 6.4 | 16.1 | 0.00 | 0.03 | 0.00 | 92 | 1013.9 |
| 20260906094604 | 20 | 28 | 4.8 | 12.9 | 0.00 | 0.03 | 0.00 | 92 | 1013.8 |
| 20260906093104 | 20 | 36 | 4.8 | 16.1 | 0.00 | 0.03 | 0.00 | 92 | 1013.6 |
| 20260906091554 | 20 | 24 | 6.4 | 16.1 | 0.00 | 0.03 | 0.00 | 91 | 1013.6 |
| 20260906090138 | 20 | 12 | 6.4 | 14.5 | 0.00 | 0.03 | 0.00 | 91 | 1013.4 |
| 20260906084605 | 20 | 27 | 4.8 | 16.1 | 0.00 | 0.03 | 0.00 | 91 | 1013.5 |
| 20260906083056 | 20 | 36 | 4.8 | 12.9 | 0.00 | 0.03 | 0.00 | 90 | 1013.3 |
| 20260906081602 | 20 | 24 | 6.4 | 12.9 | 0.00 | 0.03 | 0.00 | 90 | 1013.2 |
| 20260906080108 | 20 | 34 | 6.4 | 14.5 | 0.00 | 0.03 | 0.00 | 90 | 1012.9 |
| 20260906074602 | 20 | 21 | 4.8 | 12.9 | 0.00 | 0.03 | 0.00 | 89 | 1013.0 |
| 20260906073056 | 21 | 26 | 4.8 | 12.9 | 0.00 | 0.03 | 0.00 | 88 | 1013.2 |
| 20260906071548 | 21 | 26 | 3.2 | 12.9 | 0.00 | 0.03 | 0.00 | 88 | 1013.3 |
| 20260906070058 | 21 | 28 | 4.8 | 12.9 | 0.00 | 0.03 | 0.00 | 87 | 1013.2 |
| 20260906064600 | 21 | 26 | 4.8 | 12.9 | 0.00 | 0.03 | 0.00 | 86 | 1013.3 |
| 20260906063101 | 22 | 26 | 4.8 | 11.3 | 0.00 | 0.03 | 0.00 | 85 | 1013.4 |
| 20260906061605 | 22 | 19 | 3.2 | 11.3 | 0.00 | 0.03 | 0.00 | 84 | 1013.6 |
| 20260906060059 | 22 | 19 | 3.2 | 8.0 | 0.00 | 0.03 | 0.00 | 83 | 1013.7 |
| 20260906054604 | 23 | 23 | 3.2 | 8.0 | 0.00 | 0.03 | 0.00 | 82 | 1013.6 |
| 20260906053113 | 23 | 23 | 4.8 | 16.1 | 0.00 | 0.03 | 0.00 | 82 | 1013.7 |
| 20260906051557 | 23 | 34 | 6.4 | 16.1 | 0.00 | 0.03 | 0.00 | 81 | 1013.6 |
| 20260906050100 | 23 | 23 | 4.8 | 14.5 | 0.00 | 0.03 | 0.00 | 81 | 1013.4 |
| 20260906044553 | 23 | 34 | 8.0 | 17.7 | 0.00 | 0.03 | 0.00 | 81 | 1013.4 |
| 20260906043058 | 24 | 22 | 4.8 | 17.7 | 0.00 | 0.03 | 0.00 | 81 | 1013.1 |
| 20260906041559 | 24 | 23 | 6.4 | 17.7 | 0.00 | 0.03 | 0.00 | 81 | 1012.9 |
| 20260906040054 | 25 | 22 | 8.0 | 17.7 | 0.00 | 0.03 | 0.00 | 81 | 1012.9 |
| 20260906034557 | 25 | 52 | 4.8 | 14.5 | 0.00 | 0.03 | 0.03 | 81 | 1013.0 |
| 20260906033055 | 25 | 15 | 6.4 | 16.1 | 0.00 | 0.03 | 0.03 | 81 | 1012.8 |
| 20260906031557 | 25 | 24 | 6.4 | 12.9 | 0.00 | 0.03 | 0.03 | 80 | 1012.7 |
| 20260906030059 | 25 | 19 | 4.8 | 14.5 | 0.00 | 0.03 | 0.03 | 79 | 1012.6 |
| 20260906024615 | 25 | 51 | 6.4 | 17.7 | 0.00 | 0.03 | 0.03 | 76 | 1012.4 |
| 20260906023105 | 25 | 5 | 4.8 | 9.7 | 0.00 | 0.03 | 0.03 | 74 | 1012.2 |
| 20260906021600 | 25 | 0 | 0.0 | 0.0 | 0.00 | 0.03 | 0.03 | 72 | 1011.9 |
| 20260906020105 | 26 | 0 | 0.0 | 0.0 | 0.00 | 0.03 | 0.03 | 71 | 1011.8 |
| 20260906014556 | 26 | 0 | 0.0 | 0.0 | 0.00 | 0.03 | 0.03 | 70 | 1011.9 |
| 20260906013058 | 26 | 0 | 0.0 | 0.0 | 0.00 | 0.03 | 0.03 | 69 | 1011.9 |
| 20260906011603 | 27 | 0 | 0.0 | 0.0 | 0.00 | 0.03 | 0.03 | 67 | 1011.6 |
| 20260906010130 | 27 | 0 | 0.0 | 3.2 | 0.00 | 0.03 | 0.03 | 67 | 1011.5 |
| 20260906004557 | 27 | 0 | 1.6 | 4.8 | 0.00 | 0.03 | 0.03 | 66 | 1011.4 |
| 20260906003100 | 28 | 128 | 1.6 | 9.7 | 0.00 | 0.03 | 0.03 | 65 | 1011.3 |
| 20260906001606 | 29 | 124 | 4.8 | 9.7 | 0.00 | 0.03 | 0.03 | 63 | 1011.5 |
| 20260906000056 | 30 | 26 | 1.6 | 4.8 | 0.00 | 0.03 | 0.03 | 59 | 1011.5 |
| 20260905234605 | 31 | 26 | 3.2 | 12.9 | 0.00 | 0.03 | 0.03 | 57 | 1011.4 |
| 20260905233047 | 31 | 17 | 3.2 | 8.0 | 0.00 | 0.03 | 0.03 | 55 | 1011.2 |
| 20260905231557 | 31 | 351 | 4.8 | 12.9 | 0.00 | 0.03 | 0.03 | 54 | 1011.1 |
| 20260905230108 | 32 | 24 | 4.8 | 20.9 | 0.00 | 0.03 | 0.03 | 54 | 1011.2 |
| 20260905224558 | 32 | 28 | 6.4 | 14.5 | 0.00 | 0.03 | 0.03 | 54 | 1011.0 |
| 20260905223057 | 32 | 17 | 9.7 | 22.5 | 0.00 | 0.03 | 0.03 | 53 | 1010.8 |
| 20260905221557 | 32 | 311 | 6.4 | 24.1 | 0.00 | 0.03 | 0.03 | 52 | 1010.7 |
| 20260905220100 | 33 | 339 | 6.4 | 16.1 | 0.00 | 0.03 | 0.03 | 52 | 1010.8 |
| 20260905214603 | 33 | 31 | 4.8 | 16.1 | 0.00 | 0.03 | 0.03 | 52 | 1010.8 |
| 20260905213101 | 32 | 349 | 3.2 | 17.7 | 0.00 | 0.03 | 0.03 | 54 | 1010.7 |
| 20260905211600 | 32 | 351 | 8.0 | 20.9 | 0.00 | 0.03 | 0.03 | 53 | 1010.9 |
| 20260905210058 | 32 | 344 | 6.4 | 17.7 | 0.00 | 0.03 | 0.03 | 54 | 1011.0 |
| 20260905204605 | 32 | 22 | 8.0 | 19.3 | 0.03 | 0.03 | 0.03 | 56 | 1011.1 |
| 20260905203103 | 31 | 355 | 3.2 | 8.0 | 0.03 | 0.03 | 0.03 | 60 | 1011.2 |
| 20260905201606 | 30 | 0 | 1.6 | 4.8 | 0.03 | 0.03 | 0.03 | 65 | 1011.6 |
| 20260905200058 | 31 | 22 | 3.2 | 12.9 | 0.03 | 0.03 | 0.03 | 59 | 1011.6 |
| 20260905194555 | 34 | 13 | 6.4 | 17.7 | 0.00 | 0.00 | 0.00 | 51 | 1011.8 |
| 20260905193051 | 35 | 45 | 1.6 | 14.5 | 0.00 | 0.00 | 0.00 | 45 | 1011.8 |
| 20260905191558 | 36 | 5 | 6.4 | 14.5 | 0.00 | 0.00 | 0.00 | 44 | 1011.9 |
| 20260905190103 | 35 | 299 | 3.2 | 8.0 | 0.00 | 0.00 | 0.00 | 47 | 1012.1 |
| 20260905184609 | 35 | 274 | 4.8 | 16.1 | 0.00 | 0.00 | 0.00 | 46 | 1012.3 |
| 20260905183114 | 33 | 32 | 6.4 | 16.1 | 0.00 | 0.00 | 0.00 | 48 | 1012.5 |
| 20260905181558 | 34 | 27 | 6.4 | 17.7 | 0.00 | 0.00 | 0.00 | 46 | 1012.6 |
| 20260905180057 | 35 | 250 | 3.2 | 9.7 | 0.00 | 0.00 | 0.00 | 46 | 1012.8 |
| 20260905174601 | 33 | 82 | 1.6 | 8.0 | 0.00 | 0.00 | 0.00 | 51 | 1013.0 |
| 20260905173056 | 33 | 68 | 1.6 | 11.3 | 0.00 | 0.00 | 0.00 | 52 | 1013.2 |
| 20260905171604 | 33 | 55 | 3.2 | 12.9 | 0.00 | 0.00 | 0.00 | 51 | 1013.6 |
| 20260905170108 | 33 | 0 | 0.0 | 12.9 | 0.00 | 0.00 | 0.00 | 53 | 1013.8 |
| 20260905164605 | 31 | 109 | 1.6 | 11.3 | 0.00 | 0.00 | 0.00 | 56 | 1013.9 |
| 20260905163104 | 31 | 44 | 3.2 | 12.9 | 0.00 | 0.00 | 0.00 | 55 | 1013.9 |
| 20260905161602 | 31 | 0 | 3.2 | 11.3 | 0.00 | 0.00 | 0.00 | 56 | 1013.9 |
| 20260905154554 | 30 | 147 | 4.8 | 11.3 | 0.00 | 0.00 | 0.00 | 58 | 1014.5 |
| 20260905153102 | 30 | 101 | 3.2 | 9.7 | 0.00 | 0.00 | 0.00 | 60 | 1014.4 |
| 20260905151558 | 29 | 46 | 4.8 | 9.7 | 0.00 | 0.00 | 0.00 | 60 | 1014.4 |
| 20260905150100 | 28 | 147 | 3.2 | 11.3 | 0.00 | 0.00 | 0.00 | 62 | 1014.2 |
| 20260905144553 | 28 | 49 | 1.6 | 12.9 | 0.00 | 0.00 | 0.00 | 67 | 1014.7 |
| 20260905143101 | 28 | 81 | 1.6 | 14.5 | 0.00 | 0.00 | 0.00 | 67 | 1014.2 |
| 20260905141554 | 28 | 22 | 3.2 | 12.9 | 0.00 | 0.00 | 0.00 | 65 | 1014.5 |
| 20260905140127 | 27 | 13 | 4.8 | 8.0 | 0.00 | 0.00 | 0.00 | 67 | 1014.2 |
| 20260905134604 | 27 | 0 | 1.6 | 6.4 | 0.00 | 0.00 | 0.00 | 71 | 1014.0 |
| 20260905133055 | 26 | 201 | 1.6 | 6.4 | 0.00 | 0.00 | 0.00 | 73 | 1014.1 |
| 20260905131616 | 25 | 0 | 0.0 | 0.0 | 0.00 | 0.00 | 0.00 | 75 | 1014.2 |
| 20260905130058 | 24 | 0 | 0.0 | 0.0 | 0.00 | 0.00 | 0.00 | 78 | 1014.2 |
| 20260905124605 | 23 | 0 | 0.0 | 0.0 | 0.00 | 0.00 | 0.00 | 81 | 1014.2 |
| 20260905123110 | 23 | 0 | 0.0 | 0.0 | 0.00 | 0.00 | 0.00 | 81 | 1014.3 |
| 20260905121558 | 22 | 0 | 0.0 | 0.0 | 0.00 | 0.00 | 0.00 | 81 | 1014.3 |
| 20260905120058 | 22 | 0 | 0.0 | 0.0 | 0.00 | 0.00 | 0.00 | 81 | 1014.2 |
| 20260905114556 | 22 | 0 | 0.0 | 0.0 | 0.00 | 0.00 | 0.00 | 80 | 1014.0 |
| 20260905113051 | 22 | 0 | 0.0 | 0.0 | 0.00 | 0.00 | 0.00 | 80 | 1013.8 |
| 20260905111603 | 22 | 0 | 0.0 | 0.0 | 0.00 | 0.00 | 0.00 | 80 | 1013.6 |
| 20260905110056 | 22 | 0 | 0.0 | 0.0 | 0.00 | 0.00 | 0.00 | 79 | 1013.4 |
| 20260905104609 | 22 | 0 | 0.0 | 0.0 | 0.00 | 0.00 | 0.00 | 79 | 1013.4 |